Time;durP1;ratioP1;P1;durP2;ratioP2;P2;SDS_P1;SDS_P2;PMS_P1;PMS_P2;Temp;Humidity;BMP_temperature;BMP_pressure;BME280_temperature;BME280_humidity;BME280_pressure;Samples;Min_cycle;Max_cycle;Signal;HPM_P1;HPM_P2
2022/11/28 00:01:22;;;;;;;18.87;11.87;;;;;;;1.87;83.71;96370.75;1726797;83;21047;-73
2022/11/28 00:03:49;;;;;;;18.53;11.53;;;;;;;1.86;83.71;96370.27;1708584;83;21538;-72
2022/11/28 00:06:16;;;;;;;20.40;11.57;;;;;;;1.83;83.82;96368.89;1727231;83;21063;-73
2022/11/28 00:08:43;;;;;;;20.03;12.60;;;;;;;1.75;84.23;96366.08;1727117;83;21035;-72
2022/11/28 00:11:12;;;;;;;23.60;13.97;;;;;;;1.65;84.16;96366.23;1727195;83;21031;-72
2022/11/28 00:13:39;;;;;;;31.73;16.27;;;;;;;1.67;84.23;96366.30;1726894;83;21047;-73
2022/11/28 00:16:08;;;;;;;35.67;18.03;;;;;;;1.68;84.77;96365.02;1727152;83;21026;-73
2022/11/28 00:18:35;;;;;;;25.40;14.07;;;;;;;1.65;85.22;96357.56;1727086;83;21540;-72
2022/11/28 00:21:06;;;;;;;22.80;14.30;;;;;;;1.61;85.08;96358.30;1727098;83;20987;-72
2022/11/28 00:23:33;;;;;;;27.10;14.20;;;;;;;1.61;85.23;96360.91;1727227;83;21082;-72
2022/11/28 00:26:11;;;;;;;33.80;18.70;;;;;;;1.64;85.16;96361.02;1727405;83;21003;-72
2022/11/28 00:28:38;;;;;;;35.80;19.30;;;;;;;1.63;84.69;96362.70;1726006;83;21063;-73
2022/11/28 00:31:06;;;;;;;35.40;21.10;;;;;;;1.67;84.99;96364.99;1727188;83;21054;-72
2022/11/28 00:33:33;;;;;;;21.93;14.00;;;;;;;1.73;85.11;96367.75;1720600;83;21051;-72
2022/11/28 00:36:03;;;;;;;19.47;11.17;;;;;;;1.87;85.38;96362.95;1726991;83;21047;-72
2022/11/28 00:38:30;;;;;;;26.13;14.10;;;;;;;1.98;85.01;96369.73;1727098;83;21099;-72
2022/11/28 00:41:10;;;;;;;27.30;15.23;;;;;;;1.94;84.02;96364.84;1726931;83;21501;-72
2022/11/28 00:43:37;;;;;;;35.40;18.10;;;;;;;1.90;83.98;96365.63;1727303;83;21107;-72
2022/11/28 00:46:04;;;;;;;30.97;18.17;;;;;;;1.93;84.14;96364.40;1727410;83;21026;-72
2022/11/28 00:48:33;;;;;;;29.57;16.37;;;;;;;1.94;84.25;96367.45;1727166;83;21055;-72
2022/11/28 00:51:10;;;;;;;19.57;11.63;;;;;;;1.98;84.29;96358.02;1727128;83;21011;-72
2022/11/28 00:53:40;;;;;;;20.33;11.93;;;;;;;2.01;84.37;96360.27;1726839;83;21071;-72
2022/11/28 00:56:10;;;;;;;17.90;11.00;;;;;;;2.03;83.92;96361.20;1726895;83;21011;-72
2022/11/28 00:58:38;;;;;;;17.13;11.13;;;;;;;2.11;84.46;96354.47;1727280;83;21042;-72
2022/11/28 01:01:16;;;;;;;17.70;11.47;;;;;;;2.23;84.56;96355.64;1727258;83;21078;-72
2022/11/28 01:03:43;;;;;;;17.70;11.07;;;;;;;2.24;83.46;96358.69;1723023;83;21043;-72
2022/11/28 01:06:11;;;;;;;17.10;10.53;;;;;;;2.16;83.22;96349.38;1727069;83;21059;-72
2022/11/28 01:08:38;;;;;;;17.30;9.90;;;;;;;2.12;83.46;96360.16;1727055;83;21027;-72
2022/11/28 01:11:11;;;;;;;18.23;10.93;;;;;;;2.05;83.03;96353.45;1704681;84;20991;-72
2022/11/28 01:13:39;;;;;;;22.53;12.80;;;;;;;1.97;83.02;96355.84;1727126;83;21122;-72
2022/11/28 01:16:07;;;;;;;63.40;30.57;;;;;;;1.90;83.22;96351.31;1709601;83;21511;-72
2022/11/28 01:18:34;;;;;;;24.97;14.10;;;;;;;1.86;83.36;96355.95;1674420;86;21044;-72
2022/11/28 01:21:00;;;;;;;20.33;12.77;;;;;;;1.85;83.72;96352.91;1702209;84;21069;-72
2022/11/28 01:23:27;;;;;;;35.07;20.33;;;;;;;1.81;83.78;96351.05;1672457;86;21033;-72
2022/11/28 01:25:53;;;;;;;42.23;22.07;;;;;;;1.76;83.62;96354.82;1674734;86;21536;-72
2022/11/28 01:28:20;;;;;;;25.80;16.13;;;;;;;1.76;84.09;96353.95;1701866;84;21515;-72
2022/11/28 01:30:47;;;;;;;25.43;13.87;;;;;;;1.76;84.32;96356.13;1702250;84;20986;-72
2022/11/28 01:33:13;;;;;;;22.70;13.57;;;;;;;1.73;84.29;96353.44;1672748;86;20986;-72
2022/11/28 01:35:40;;;;;;;21.00;12.70;;;;;;;1.68;84.50;96348.11;1674691;86;20997;-72
2022/11/28 01:38:07;;;;;;;24.40;12.87;;;;;;;1.72;84.70;96347.36;1701927;84;21483;-72
2022/11/28 01:40:33;;;;;;;19.03;12.80;;;;;;;1.81;84.82;96347.14;1702040;84;21061;-72
2022/11/28 01:43:00;;;;;;;19.67;11.17;;;;;;;1.81;84.63;96348.45;1672649;86;21468;-72
2022/11/28 01:45:31;;;;;;;18.97;10.10;;;;;;;1.87;84.86;96348.63;1674682;86;21025;-72
2022/11/28 01:48:02;;;;;;;28.23;15.13;;;;;;;1.91;84.43;96343.52;1702227;84;21049;-72
2022/11/28 01:50:32;;;;;;;24.87;14.40;;;;;;;1.87;84.13;96342.13;1672643;86;21002;-72
2022/11/28 01:53:04;;;;;;;21.37;11.50;;;;;;;1.80;84.20;96341.07;1674458;86;21065;-72
2022/11/28 01:55:36;;;;;;;16.07;9.67;;;;;;;1.71;84.52;96340.41;1702194;84;20966;-72
2022/11/28 01:58:03;;;;;;;21.20;11.17;;;;;;;1.74;84.81;96342.22;1672145;86;20991;-72
2022/11/28 02:00:30;;;;;;;17.47;11.30;;;;;;;1.78;84.83;96340.14;1701984;84;21074;-72
2022/11/28 02:03:11;;;;;;;23.17;12.37;;;;;;;1.76;84.64;96343.54;1672617;86;21515;-72
2022/11/28 02:05:38;;;;;;;19.20;11.30;;;;;;;1.86;85.23;96341.64;1674591;86;21094;-72
2022/11/28 02:08:07;;;;;;;15.73;8.80;;;;;;;1.98;84.84;96338.50;1702136;84;21510;-72
2022/11/28 02:10:45;;;;;;;14.00;8.90;;;;;;;2.04;84.53;96330.45;1702221;84;21396;-72
2022/11/28 02:13:32;;;;;;;12.67;8.07;;;;;;;1.99;83.76;96328.54;1701743;84;21010;-72
2022/11/28 02:16:35;;;;;;;13.77;8.40;;;;;;;1.92;83.71;96333.59;1701846;84;21051;-72
2022/11/28 02:19:45;;;;;;;15.43;8.70;;;;;;;1.91;83.98;96328.34;1702262;84;21350;-72
2022/11/28 02:22:20;;;;;;;14.57;8.27;;;;;;;1.90;83.83;96326.59;1680658;84;21041;-73
2022/11/28 02:25:17;;;;;;;13.10;8.27;;;;;;;1.87;83.89;96323.48;1697897;84;21033;-73
2022/11/28 02:28:10;;;;;;;13.20;8.40;;;;;;;1.83;83.75;96322.05;1697833;84;21512;-72
2022/11/28 02:31:15;;;;;;;13.05;7.37;;;;;;;1.79;83.84;96321.11;1698241;84;21034;-72
2022/11/28 02:33:52;;;;;;;12.83;7.07;;;;;;;1.75;83.57;96314.47;1697693;84;21029;-72
2022/11/28 02:36:33;;;;;;;13.30;7.87;;;;;;;1.70;83.90;96307.84;1697305;84;21602;-72
2022/11/28 02:39:14;;;;;;;11.40;7.17;;;;;;;1.73;84.09;96318.32;1697829;84;21062;-73
2022/11/28 02:41:49;;;;;;;13.07;7.67;;;;;;;1.80;84.23;96316.35;1697685;84;21046;-73
2022/11/28 02:44:19;;;;;;;9.97;6.67;;;;;;;1.84;84.15;96311.70;1698067;84;21016;-73
2022/11/28 02:46:57;;;;;;;12.17;7.37;;;;;;;1.87;84.00;96311.78;1697737;84;21027;-73
2022/11/28 02:49:47;;;;;;;12.73;8.40;;;;;;;1.83;83.14;96311.22;1697463;84;21021;-73
2022/11/28 02:52:31;;;;;;;15.80;8.53;;;;;;;1.73;83.38;96311.39;1697828;84;21484;-73
2022/11/28 02:54:59;;;;;;;18.70;9.60;;;;;;;1.69;83.90;96304.36;1697364;84;21073;-73
2022/11/28 02:57:38;;;;;;;29.23;15.53;;;;;;;1.71;84.16;96306.59;1697578;84;21077;-73
2022/11/28 03:00:33;;;;;;;19.70;10.70;;;;;;;1.72;83.80;96301.84;1697763;84;21021;-73
2022/11/28 03:03:23;;;;;;;24.43;13.63;;;;;;;1.68;83.44;96296.08;1697615;84;21029;-73
2022/11/28 03:06:35;;;;;;;17.80;10.23;;;;;;;1.69;83.61;96293.09;1697506;84;21069;-73
2022/11/28 03:09:40;;;;;;;17.40;9.87;;;;;;;1.64;83.39;96298.16;1697764;84;21042;-72
2022/11/28 03:12:51;;;;;;;16.23;9.60;;;;;;;1.54;83.33;96293.94;1698034;84;20974;-73
2022/11/28 03:15:22;;;;;;;15.40;8.70;;;;;;;1.51;83.97;96293.44;1701604;82;21540;-72
2022/11/28 03:18:00;;;;;;;24.47;11.30;;;;;;;1.49;83.56;96290.81;1730093;83;21030;-73
2022/11/28 03:21:02;;;;;;;22.13;12.20;;;;;;;1.45;83.85;96290.69;1730037;83;20971;-73
2022/11/28 03:23:43;;;;;;;26.93;12.40;;;;;;;1.48;84.34;96292.94;1729332;83;21039;-72
2022/11/28 03:26:30;;;;;;;25.23;12.53;;;;;;;1.46;84.73;96289.44;1730073;83;20979;-72
2022/11/28 03:29:07;;;;;;;21.33;12.00;;;;;;;1.49;84.52;96296.44;1730008;83;21528;-72
2022/11/28 03:31:39;;;;;;;24.23;12.87;;;;;;;1.49;84.61;96296.44;1730256;83;21041;-72
2022/11/28 03:34:10;;;;;;;28.43;13.43;;;;;;;1.45;84.82;96297.18;1730101;83;21034;-72
2022/11/28 03:36:42;;;;;;;25.63;13.13;;;;;;;1.40;84.58;96293.58;1729849;83;21002;-72
2022/11/28 03:39:17;;;;;;;25.63;13.10;;;;;;;1.37;84.45;96290.89;1730098;83;21099;-73
2022/11/28 03:41:54;;;;;;;25.10;12.23;;;;;;;1.36;84.30;96298.22;1729937;83;21027;-73
2022/11/28 03:44:32;;;;;;;23.70;13.27;;;;;;;1.37;84.85;96290.47;1728823;83;21028;-73
2022/11/28 03:47:01;;;;;;;19.23;10.73;;;;;;;1.38;85.02;96291.34;1730106;83;20988;-72
2022/11/28 03:49:41;;;;;;;16.07;8.23;;;;;;;1.44;85.13;96295.01;1729964;83;21062;-72
2022/11/28 03:52:19;;;;;;;19.93;8.27;;;;;;;1.48;85.02;96295.96;1730051;83;21552;-73
2022/11/28 03:55:03;;;;;;;16.87;9.73;;;;;;;1.43;84.43;96291.92;1729615;83;21028;-73
2022/11/28 03:57:35;;;;;;;18.40;10.17;;;;;;;1.39;84.34;96290.09;1721822;83;21023;-72
2022/11/28 04:00:10;;;;;;;26.20;13.50;;;;;;;1.37;85.17;96295.67;1730001;83;21039;-73
2022/11/28 04:02:45;;;;;;;19.27;11.57;;;;;;;1.45;85.64;96295.45;1729987;83;21051;-72
2022/11/28 04:05:35;;;;;;;17.47;9.20;;;;;;;1.51;85.51;96296.03;1728173;83;21501;-72
2022/11/28 04:08:13;;;;;;;21.30;8.80;;;;;;;1.59;85.69;96295.85;1729908;83;21039;-73
2022/11/28 04:10:51;;;;;;;18.97;11.13;;;;;;;1.61;85.31;96298.05;1729744;83;21071;-72
2022/11/28 04:13:35;;;;;;;21.53;11.27;;;;;;;1.69;85.60;96292.66;1728926;83;21553;-72
2022/11/28 04:16:07;;;;;;;20.57;11.73;;;;;;;1.84;85.66;96291.28;1728327;82;21094;-72
2022/11/28 04:18:58;;;;;;;24.20;12.77;;;;;;;1.92;85.27;96294.56;1730044;83;21046;-73
2022/11/28 04:21:42;;;;;;;34.33;17.37;;;;;;;1.91;84.17;96297.11;1729667;83;21568;-72
2022/11/28 04:24:19;;;;;;;17.27;10.20;;;;;;;1.75;83.57;96298.86;1729826;83;21039;-72
2022/11/28 04:26:57;;;;;;;14.13;8.33;;;;;;;1.61;83.78;96304.98;1722030;83;21501;-73
2022/11/28 04:29:26;;;;;;;14.57;8.10;;;;;;;1.50;83.89;96299.49;1729352;83;21054;-73
2022/11/28 04:31:57;;;;;;;15.30;9.07;;;;;;;1.40;84.00;96301.38;1730102;83;21482;-72
2022/11/28 04:34:26;;;;;;;21.93;11.97;;;;;;;1.42;84.75;96300.58;1704609;84;21483;-73
2022/11/28 04:36:54;;;;;;;45.07;21.87;;;;;;;1.45;84.46;96302.38;1726897;83;21579;-72
2022/11/28 04:39:24;;;;;;;35.67;17.87;;;;;;;1.41;84.18;96297.92;1726884;83;21041;-73
2022/11/28 04:42:06;;;;;;;52.17;21.87;;;;;;;1.39;84.60;96301.80;1727302;83;21007;-72
2022/11/28 04:44:59;;;;;;;71.93;29.53;;;;;;;1.38;85.16;96304.34;1726901;83;21080;-73
2022/11/28 04:47:26;;;;;;;31.85;15.48;;;;;;;1.35;84.74;96299.06;1727331;83;21086;-72
2022/11/28 04:49:53;;;;;;;27.00;12.50;;;;;;;1.33;84.54;96302.03;1726682;83;21051;-72
2022/11/28 04:52:43;;;;;;;15.83;9.20;;;;;;;1.28;84.64;96302.77;1727075;83;21051;-72
2022/11/28 04:55:42;;;;;;;36.67;17.57;;;;;;;1.30;84.91;96303.70;1696377;84;20976;-72
2022/11/28 04:58:30;;;;;;;21.93;11.23;;;;;;;1.30;85.00;96299.80;1727081;83;21079;-73
2022/11/28 05:00:57;;;;;;;18.33;8.90;;;;;;;1.33;85.43;96299.44;1726395;83;21047;-72
2022/11/28 05:03:27;;;;;;;18.77;8.43;;;;;;;1.34;85.31;96301.22;1704697;84;21454;-72
2022/11/28 05:05:54;;;;;;;18.43;9.17;;;;;;;1.39;85.33;96297.90;1704658;84;20976;-72
2022/11/28 05:08:20;;;;;;;15.97;8.27;;;;;;;1.44;85.32;96299.34;1704343;84;20978;-72
2022/11/28 05:10:47;;;;;;;18.73;8.23;;;;;;;1.42;84.86;96294.08;1704477;84;21523;-72
2022/11/28 05:13:14;;;;;;;19.17;9.50;;;;;;;1.40;85.04;96300.08;1704426;84;21116;-72
2022/11/28 05:15:41;;;;;;;16.83;9.93;;;;;;;1.44;85.79;96297.61;1703952;84;21053;-73
2022/11/28 05:18:08;;;;;;;17.47;9.73;;;;;;;1.52;85.71;96295.22;1704520;84;21511;-72
2022/11/28 05:20:36;;;;;;;23.60;12.97;;;;;;;1.48;85.36;96298.13;1704486;84;21082;-72
2022/11/28 05:23:04;;;;;;;18.03;10.23;;;;;;;1.44;85.58;96291.53;1704298;84;21162;-73
2022/11/28 05:25:30;;;;;;;22.63;10.97;;;;;;;1.46;85.37;96292.43;1704794;84;21003;-72
2022/11/28 05:27:57;;;;;;;20.67;11.50;;;;;;;1.38;85.15;96289.62;1727236;83;20980;-73
2022/11/28 05:30:23;;;;;;;38.83;17.20;;;;;;;1.34;85.27;96296.02;1726740;83;21054;-73
2022/11/28 05:32:50;;;;;;;48.87;24.53;;;;;;;1.29;85.30;96292.86;1726933;83;21078;-72
2022/11/28 05:35:17;;;;;;;65.20;29.73;;;;;;;1.31;85.26;96292.91;1727029;83;21066;-72
2022/11/28 05:37:43;;;;;;;70.60;30.83;;;;;;;1.30;85.20;96288.11;1727058;83;20984;-72
2022/11/28 05:40:11;;;;;;;75.20;34.20;;;;;;;1.32;85.14;96288.16;1727063;83;21007;-72
2022/11/28 05:42:38;;;;;;;67.83;31.53;;;;;;;1.26;84.99;96287.97;1726876;83;21051;-72
2022/11/28 05:45:06;;;;;;;79.27;35.10;;;;;;;1.24;85.42;96287.07;1727115;83;21050;-73
2022/11/28 05:47:33;;;;;;;77.33;36.13;;;;;;;1.22;85.62;96291.34;1727079;83;21015;-72
2022/11/28 05:50:00;;;;;;;58.60;27.00;;;;;;;1.19;85.35;96290.84;1726950;83;21497;-72
2022/11/28 05:52:32;;;;;;;31.03;16.00;;;;;;;1.15;85.75;96283.77;1726921;83;21023;-72
2022/11/28 05:54:59;;;;;;;69.87;32.53;;;;;;;1.14;85.47;96283.75;1726066;83;21067;-75
2022/11/28 05:57:25;;;;;;;65.27;32.27;;;;;;;1.12;85.42;96284.99;1726319;83;21074;-69
2022/11/28 05:59:52;;;;;;;60.20;30.07;;;;;;;1.17;86.04;96292.92;1726676;83;21548;-68
2022/11/28 06:02:19;;;;;;;52.87;24.90;;;;;;;1.28;86.41;96294.09;1726770;83;21050;-67
2022/11/28 06:04:46;;;;;;;47.67;23.20;;;;;;;1.32;86.06;96292.48;1725849;83;21059;-71
2022/11/28 06:07:12;;;;;;;48.50;24.93;;;;;;;1.37;86.37;96288.30;1726588;83;21656;-78
2022/11/28 06:09:39;;;;;;;48.90;23.67;;;;;;;1.42;86.08;96291.48;1726303;83;21032;-77
2022/11/28 06:12:06;;;;;;;43.07;22.70;;;;;;;1.55;86.28;96292.70;1726622;83;21071;-78
2022/11/28 06:14:33;;;;;;;42.70;22.70;;;;;;;1.69;86.49;96293.09;1726402;83;21058;-79
2022/11/28 06:16:59;;;;;;;38.27;20.60;;;;;;;1.83;86.24;96285.62;1715393;83;21052;-81
2022/11/28 06:19:26;;;;;;;46.13;23.50;;;;;;;1.88;85.39;96287.93;1674466;86;20989;-80
2022/11/28 06:21:55;;;;;;;44.13;21.73;;;;;;;1.78;84.60;96288.53;1697466;84;21468;-78
2022/11/28 06:24:21;;;;;;;43.63;23.43;;;;;;;1.76;84.73;96290.20;1701272;84;21575;-80
2022/11/28 06:26:48;;;;;;;42.17;23.13;;;;;;;1.67;84.43;96291.73;1672453;86;21062;-78
2022/11/28 06:29:15;;;;;;;54.10;28.73;;;;;;;1.70;85.22;96296.13;1674810;86;21033;-76
2022/11/28 06:31:41;;;;;;;52.13;28.57;;;;;;;1.78;84.95;96295.03;1701564;84;21124;-76
2022/11/28 06:34:11;;;;;;;62.37;28.27;;;;;;;1.78;84.42;96295.03;1700684;84;21554;-76
2022/11/28 06:36:39;;;;;;;62.20;32.73;;;;;;;1.75;84.32;96292.36;1671500;86;21125;-75
2022/11/28 06:39:06;;;;;;;42.83;24.33;;;;;;;1.69;84.39;96287.88;1674326;86;21017;-78
2022/11/28 06:41:33;;;;;;;41.63;21.73;;;;;;;1.67;84.22;96290.86;1702096;84;21135;-75
2022/11/28 06:43:59;;;;;;;45.17;24.33;;;;;;;1.64;84.20;96289.48;1672837;86;20975;-71
2022/11/28 06:46:26;;;;;;;25.53;14.90;;;;;;;1.65;84.32;96287.33;1669351;85;21016;-77
2022/11/28 06:48:53;;;;;;;63.50;38.23;;;;;;;1.65;84.32;96286.90;1686521;84;20980;-75
2022/11/28 06:51:20;;;;;;;69.17;39.40;;;;;;;1.64;84.37;96286.45;1695250;84;21056;-79
2022/11/28 06:53:47;;;;;;;101.13;56.87;;;;;;;1.62;84.87;96285.52;1691467;84;21095;-75
2022/11/28 06:56:18;;;;;;;75.57;43.37;;;;;;;1.63;84.90;96286.39;1702199;84;21024;-70
2022/11/28 06:58:46;;;;;;;36.40;20.70;;;;;;;1.60;85.22;96288.92;1705657;84;21014;-70
2022/11/28 07:01:18;;;;;;;21.07;12.17;;;;;;;1.61;84.95;96286.77;1705965;84;21196;-75
2022/11/28 07:03:45;;;;;;;62.43;35.50;;;;;;;1.67;85.51;96289.13;1706551;84;21570;-65
2022/11/28 07:06:14;;;;;;;60.33;33.43;;;;;;;1.73;85.70;96276.70;1706048;84;21119;-71
2022/11/28 07:08:41;;;;;;;55.33;32.47;;;;;;;1.71;85.31;96277.98;1706499;84;21452;-70
2022/11/28 07:11:16;;;;;;;43.03;25.97;;;;;;;1.69;85.45;96280.95;1706246;84;21755;-72
2022/11/28 07:13:45;;;;;;;52.13;24.63;;;;;;;1.76;85.72;96279.38;1705847;84;21013;-76
2022/11/28 07:16:22;;;;;;;240.17;120.07;;;;;;;1.82;85.14;96286.48;1706500;84;21702;-78
2022/11/28 07:18:49;;;;;;;120.17;52.17;;;;;;;1.76;84.69;96281.09;1741539;82;21595;-85
2022/11/28 07:21:17;;;;;;;75.67;36.23;;;;;;;1.79;85.04;96279.87;1741483;82;21054;-75
2022/11/28 07:23:45;;;;;;;345.10;141.13;;;;;;;1.76;84.88;96280.67;1743544;82;21540;-76
2022/11/28 07:26:15;;;;;;;116.27;54.20;;;;;;;1.79;85.04;96285.08;1723743;83;21035;-74
2022/11/28 07:28:43;;;;;;;110.47;53.47;;;;;;;1.83;85.73;96277.82;1706709;84;21516;-72
2022/11/28 07:31:17;;;;;;;44.10;21.50;;;;;;;1.89;85.51;96280.56;1734391;81;21066;-78
2022/11/28 07:33:48;;;;;;;92.27;46.67;;;;;;;1.98;85.74;96276.91;1739060;82;21037;-73
2022/11/28 07:36:19;;;;;;;47.30;25.13;;;;;;;2.07;85.71;96278.89;1739170;82;21080;-72
2022/11/28 07:38:51;;;;;;;54.53;26.30;;;;;;;2.20;85.95;96269.66;1731135;82;21043;-72
2022/11/28 07:41:19;;;;;;;50.40;24.93;;;;;;;2.24;85.90;96272.77;1711858;84;21089;-71
2022/11/28 07:43:48;;;;;;;52.77;24.23;;;;;;;2.33;85.96;96263.89;1711811;84;21079;-71
2022/11/28 07:46:18;;;;;;;50.07;23.50;;;;;;;2.31;85.78;96259.94;1712653;84;21102;-72
2022/11/28 07:48:46;;;;;;;43.17;21.83;;;;;;;2.40;86.12;96264.50;1712359;84;21035;-78
2022/11/28 07:51:18;;;;;;;44.57;22.97;;;;;;;2.52;86.38;96257.38;1712337;84;21552;-71
2022/11/28 07:53:45;;;;;;;47.97;22.33;;;;;;;2.57;85.72;96247.94;1711937;84;21434;-78
2022/11/28 07:56:18;;;;;;;56.23;27.00;;;;;;;2.64;85.81;96249.84;1711776;84;21062;-81
2022/11/28 07:58:46;;;;;;;41.53;21.27;;;;;;;2.72;85.93;96244.80;1713025;84;21015;-76
2022/11/28 08:01:20;;;;;;;50.53;26.60;;;;;;;2.78;85.44;96249.73;1712048;84;21181;-82
2022/11/28 08:03:47;;;;;;;44.03;24.47;;;;;;;2.80;85.20;96251.95;1709752;84;21081;-71
2022/11/28 08:06:16;;;;;;;56.27;26.33;;;;;;;2.87;85.10;96246.43;1680168;85;21099;-71
2022/11/28 08:08:45;;;;;;;60.60;30.43;;;;;;;2.97;85.39;96241.00;1680000;85;21095;-73
2022/11/28 08:11:15;;;;;;;51.93;25.63;;;;;;;3.00;84.50;96246.30;1708581;82;21082;-77
2022/11/28 08:13:42;;;;;;;47.20;22.77;;;;;;;3.06;84.78;96246.41;1679783;85;21697;-74
2022/11/28 08:16:13;;;;;;;45.87;23.60;;;;;;;3.11;84.48;96246.08;1709460;84;21549;-80
2022/11/28 08:18:41;;;;;;;48.30;24.10;;;;;;;3.19;84.85;96242.33;1670771;85;21055;-74
2022/11/28 08:21:12;;;;;;;43.80;24.30;;;;;;;3.26;84.95;96239.00;1713029;83;21074;-80
2022/11/28 08:23:39;;;;;;;48.60;24.17;;;;;;;3.30;84.48;96247.75;1690464;85;21032;-75
2022/11/28 08:26:09;;;;;;;50.10;27.90;;;;;;;3.37;83.76;96243.12;1704511;84;21007;-77
2022/11/28 08:28:36;;;;;;;43.27;21.77;;;;;;;3.35;83.86;96240.50;1704528;84;21032;-73
2022/11/28 08:31:19;;;;;;;48.77;25.43;;;;;;;3.35;83.39;96239.20;1671954;84;21633;-72
2022/11/28 08:33:48;;;;;;;50.23;29.37;;;;;;;3.40;83.29;96242.77;1710877;83;21098;-75
2022/11/28 08:36:18;;;;;;;48.03;22.27;;;;;;;3.47;83.66;96242.44;1678088;85;21052;-72
2022/11/28 08:38:47;;;;;;;43.73;21.60;;;;;;;3.55;83.40;96242.59;1704503;84;21063;-70
2022/11/28 08:41:17;;;;;;;39.10;20.27;;;;;;;3.57;83.13;96235.67;1702566;84;21035;-77
2022/11/28 08:43:46;;;;;;;43.43;21.27;;;;;;;3.60;82.71;96230.50;1705846;84;21107;-69
2022/11/28 08:46:19;;;;;;;45.83;21.73;;;;;;;3.62;82.53;96232.30;1677400;84;21019;-68
2022/11/28 08:48:49;;;;;;;42.25;21.00;;;;;;;3.67;82.80;96230.64;1704862;84;21070;-71
2022/11/28 08:51:25;;;;;;;38.83;19.27;;;;;;;3.75;82.36;96222.95;1715639;83;21515;-71
2022/11/28 08:53:51;;;;;;;43.00;19.93;;;;;;;3.71;80.43;96226.81;1694560;84;21038;-76
2022/11/28 08:56:18;;;;;;;45.53;19.83;;;;;;;3.77;81.21;96216.47;1699651;84;21530;-73
2022/11/28 08:58:45;;;;;;;40.73;20.77;;;;;;;3.75;79.95;96221.64;1699819;84;21100;-73
2022/11/28 09:01:19;;;;;;;34.77;19.00;;;;;;;3.77;80.69;96213.42;1701370;84;21021;-73
2022/11/28 09:03:46;;;;;;;41.93;21.03;;;;;;;3.85;80.41;96212.25;1698803;84;21038;-69
2022/11/28 09:06:13;;;;;;;40.93;20.60;;;;;;;3.85;79.77;96207.03;1695299;84;21042;-72
2022/11/28 09:08:41;;;;;;;38.07;21.13;;;;;;;3.97;80.37;96207.24;1695476;85;21116;-73
2022/11/28 09:11:09;;;;;;;41.20;19.63;;;;;;;4.11;80.09;96200.95;1695129;85;21069;-70
2022/11/28 09:13:37;;;;;;;44.70;22.53;;;;;;;4.19;78.99;96197.16;1695556;85;21120;-80
2022/11/28 09:16:05;;;;;;;49.23;23.20;;;;;;;4.26;78.85;96192.05;1701479;83;20981;-75
2022/11/28 09:18:32;;;;;;;36.53;19.30;;;;;;;4.41;79.84;96191.81;1718455;82;21053;-76
2022/11/28 09:21:10;;;;;;;37.83;19.57;;;;;;;4.51;78.88;96190.69;1723247;83;20998;-68
2022/11/28 09:23:36;;;;;;;36.93;21.00;;;;;;;4.57;78.43;96191.19;1677881;85;21093;-66
2022/11/28 09:26:09;;;;;;;37.50;18.33;;;;;;;4.75;79.64;96191.44;1679036;85;21165;-70
2022/11/28 09:28:36;;;;;;;36.13;16.27;;;;;;;4.86;77.62;96188.09;1692152;83;21062;-72
2022/11/28 09:31:05;;;;;;;38.13;21.33;;;;;;;4.87;77.43;96184.20;1732222;82;21050;-67
2022/11/28 09:33:33;;;;;;;31.70;17.47;;;;;;;4.96;78.00;96180.40;1719812;83;21001;-73
2022/11/28 09:36:09;;;;;;;34.33;18.50;;;;;;;4.99;76.29;96186.09;1699135;84;21152;-70
2022/11/28 09:38:37;;;;;;;36.43;18.90;;;;;;;5.04;77.01;96180.89;1705519;84;21037;-71
2022/11/28 09:41:34;;;;;;;35.23;18.17;;;;;;;5.06;76.69;96182.67;1702180;84;21136;-70
2022/11/28 09:44:15;;;;;;;51.53;33.93;;;;;;;5.17;76.29;96176.28;1676757;84;21085;-75
2022/11/28 09:46:43;;;;;;;39.17;23.83;;;;;;;5.70;77.75;96171.17;1701784;84;21093;-68
2022/11/28 09:49:25;;;;;;;33.83;18.93;;;;;;;6.36;76.27;96160.82;1702229;84;21033;-66
2022/11/28 09:52:00;;;;;;;31.73;19.33;;;;;;;7.06;73.47;96154.22;1702356;84;21160;-69
2022/11/28 09:54:38;;;;;;;25.15;15.35;;;;;;;7.72;69.65;96143.44;1698191;84;21067;-71
2022/11/28 09:57:10;;;;;;;30.62;16.65;;;;;;;8.02;66.04;96142.59;1700426;84;21102;-67
2022/11/28 09:59:37;;;;;;;23.65;14.73;;;;;;;7.91;64.31;96146.08;1705943;84;21044;-65
2022/11/28 10:02:28;;;;;;;27.82;16.97;;;;;;;7.90;66.55;96140.40;1684796;84;21097;-67
2022/11/28 10:05:06;;;;;;;28.12;15.83;;;;;;;8.00;66.72;96144.33;1711941;84;21104;-63
2022/11/28 10:07:41;;;;;;;28.90;16.57;;;;;;;8.05;64.60;96137.77;1704221;84;21114;-68
2022/11/28 10:10:49;;;;;;;28.07;18.15;;;;;;;8.19;64.36;96133.39;1698183;84;21117;-63
2022/11/28 10:13:33;;;;;;;26.55;16.07;;;;;;;8.20;64.93;96131.19;1697871;84;21055;-62
2022/11/28 10:16:27;;;;;;;27.05;15.35;;;;;;;8.23;65.70;96133.80;1696115;84;21130;-62
2022/11/28 10:19:02;;;;;;;21.97;13.62;;;;;;;8.18;65.92;96128.99;1725197;82;21085;-63
2022/11/28 10:21:49;;;;;;;23.52;14.95;;;;;;;8.09;64.56;96129.02;1736829;82;21575;-64
2022/11/28 10:24:29;;;;;;;23.95;14.05;;;;;;;7.86;63.63;96121.14;1712196;82;21532;-62
2022/11/28 10:27:00;;;;;;;23.12;13.30;;;;;;;7.62;65.02;96121.98;1728739;82;21015;-62
2022/11/28 10:29:55;;;;;;;21.42;13.60;;;;;;;7.50;65.72;96118.02;1739248;82;21028;-63
2022/11/28 10:32:33;;;;;;;21.82;14.15;;;;;;;7.37;65.53;96123.23;1738062;82;21074;-63
2022/11/28 10:35:14;;;;;;;20.50;13.70;;;;;;;7.34;65.60;96120.61;1738543;82;21062;-62
2022/11/28 10:37:43;;;;;;;27.35;17.25;;;;;;;7.28;65.54;96120.61;1733173;82;21018;-62
2022/11/28 10:40:18;;;;;;;26.20;17.60;;;;;;;7.14;64.55;96118.38;1728325;82;21100;-62
2022/11/28 10:42:52;;;;;;;24.63;14.40;;;;;;;7.04;65.95;96121.40;1727608;82;21374;-61
2022/11/28 10:45:58;;;;;;;26.40;16.00;;;;;;;7.01;65.96;96120.09;1728326;82;21510;-62
2022/11/28 10:48:52;;;;;;;29.40;17.45;;;;;;;7.03;67.19;96116.13;1728946;82;21081;-63
2022/11/28 10:51:47;;;;;;;;;;;;;;;6.95;67.25;96123.98;1733495;82;21053;-62
2022/11/28 10:54:24;;;;;;;31.90;17.35;;;;;;;6.86;67.39;96131.39;1739358;82;20112;-60
2022/11/28 10:57:11;;;;;;;29.07;15.88;;;;;;;6.85;68.04;96128.75;1738880;82;21129;-63
2022/11/28 11:00:07;;;;;;;27.00;16.80;;;;;;;6.68;67.68;96126.94;1739837;82;21023;-63
2022/11/28 11:02:50;;;;;;;28.10;16.23;;;;;;;6.52;68.70;96126.39;1742394;82;20999;-64
2022/11/28 11:05:21;;;;;;;34.20;22.27;;;;;;;6.28;69.50;96125.83;1741846;82;21011;-63
2022/11/28 11:07:55;;;;;;;32.27;19.20;;;;;;;6.20;69.94;96127.09;1740684;82;21393;-61
2022/11/28 11:10:42;;;;;;;28.80;17.43;;;;;;;6.18;70.66;96128.81;1742009;82;21497;-62
2022/11/28 11:13:25;;;;;;;27.87;16.17;;;;;;;6.18;71.04;96123.58;1741568;82;20995;-62
2022/11/28 11:16:02;;;;;;;27.40;16.20;;;;;;;6.20;71.12;96128.80;1742579;82;20979;-62
2022/11/28 11:18:49;;;;;;;26.90;16.27;;;;;;;6.16;71.37;96126.61;1736946;82;21035;-62
2022/11/28 11:21:23;;;;;;;26.80;16.27;;;;;;;6.16;71.49;96121.37;1729097;83;20968;-63
2022/11/28 11:24:14;;;;;;;23.40;15.40;;;;;;;6.14;71.65;96119.61;1727581;83;21074;-61
2022/11/28 11:26:44;;;;;;;26.43;16.53;;;;;;;6.16;71.76;96123.13;1728417;83;21075;-63
2022/11/28 11:29:34;;;;;;;26.10;15.70;;;;;;;6.13;71.31;96113.94;1727809;83;21082;-63
2022/11/28 11:32:04;;;;;;;25.60;15.40;;;;;;;6.12;71.32;96121.34;1727716;83;21103;-63
2022/11/28 11:34:37;;;;;;;25.37;14.33;;;;;;;6.07;71.34;96117.37;1727368;83;21135;-63
2022/11/28 11:37:33;;;;;;;26.23;15.37;;;;;;;6.03;71.29;96109.06;1728596;83;21034;-63
2022/11/28 11:40:05;;;;;;;25.20;15.77;;;;;;;5.96;70.88;96111.19;1728364;83;21054;-61
2022/11/28 11:42:32;;;;;;;28.33;16.47;;;;;;;5.92;71.61;96115.50;1727737;83;21051;-60
2022/11/28 11:45:34;;;;;;;29.27;16.00;;;;;;;5.87;71.52;96105.39;1728750;83;21040;-61
2022/11/28 11:48:04;;;;;;;28.37;16.23;;;;;;;5.73;71.80;96107.05;1672957;86;21024;-63
2022/11/28 11:50:32;;;;;;;31.43;17.20;;;;;;;5.66;72.43;96113.09;1673321;86;21115;-63
2022/11/28 11:53:10;;;;;;;29.63;16.43;;;;;;;5.59;72.34;96105.60;1699480;83;21028;-61
2022/11/28 11:55:51;;;;;;;54.83;24.23;;;;;;;5.53;72.29;96099.89;1729057;83;21557;-63
2022/11/28 11:58:43;;;;;;;41.57;20.77;;;;;;;5.49;72.64;96103.77;1728959;83;21569;-63